sensor_id;sensor_type;location;lat;lon;timestamp;P1;durP1;ratioP1;P2;durP2;ratioP2
63953;SDS011;50128;52.094;5.232;2023-02-14T00:00:21;32.9;;;26.4;;
63953;SDS011;50128;52.094;5.232;2023-02-14T00:01:57;29.0;;;24.7;;
63953;SDS011;50128;52.094;5.232;2023-02-14T00:03:33;26.4;;;22.7;;
63953;SDS011;50128;52.094;5.232;2023-02-14T00:06:46;29.5;;;23.6;;
63953;SDS011;50128;52.094;5.232;2023-02-14T00:08:23;29.6;;;25.6;;
63953;SDS011;50128;52.094;5.232;2023-02-14T00:09:59;31.4;;;26.5;;
63953;SDS011;50128;52.094;5.232;2023-02-14T00:13:12;29.3;;;25.1;;
63953;SDS011;50128;52.094;5.232;2023-02-14T00:15:53;30.0;;;25.1;;
63953;SDS011;50128;52.094;5.232;2023-02-14T00:17:30;30.9;;;26.7;;
63953;SDS011;50128;52.094;5.232;2023-02-14T00:19:06;28.8;;;24.6;;
63953;SDS011;50128;52.094;5.232;2023-02-14T00:20:43;30.5;;;26.4;;
63953;SDS011;50128;52.094;5.232;2023-02-14T00:22:19;31.4;;;26.5;;
63953;SDS011;50128;52.094;5.232;2023-02-14T00:25:32;29.8;;;25.5;;
63953;SDS011;50128;52.094;5.232;2023-02-14T00:27:09;30.8;;;24.9;;
63953;SDS011;50128;52.094;5.232;2023-02-14T00:28:45;30.4;;;25.8;;
63953;SDS011;50128;52.094;5.232;2023-02-14T00:31:57;30.8;;;26.4;;
63953;SDS011;50128;52.094;5.232;2023-02-14T00:33:34;33.9;;;27.9;;
63953;SDS011;50128;52.094;5.232;2023-02-14T00:35:11;29.2;;;25.1;;
63953;SDS011;50128;52.094;5.232;2023-02-14T00:36:50;34.21;;;26.6;;
63953;SDS011;50128;52.094;5.232;2023-02-14T00:40:04;31.8;;;26.0;;
63953;SDS011;50128;52.094;5.232;2023-02-14T00:41:42;30.9;;;25.8;;
63953;SDS011;50128;52.094;5.232;2023-02-14T00:43:18;30.9;;;26.1;;
63953;SDS011;50128;52.094;5.232;2023-02-14T00:46:30;29.5;;;25.1;;
63953;SDS011;50128;52.094;5.232;2023-02-14T00:48:08;34.1;;;27.9;;
63953;SDS011;50128;52.094;5.232;2023-02-14T00:49:44;34.1;;;27.8;;
63953;SDS011;50128;52.094;5.232;2023-02-14T00:52:57;33.0;;;27.2;;
63953;SDS011;50128;52.094;5.232;2023-02-14T00:54:33;32.9;;;27.2;;
63953;SDS011;50128;52.094;5.232;2023-02-14T00:56:09;29.5;;;25.6;;
63953;SDS011;50128;52.094;5.232;2023-02-14T00:57:47;30.1;;;26.3;;
63953;SDS011;50128;52.094;5.232;2023-02-14T01:00:59;33.3;;;27.9;;
63953;SDS011;50128;52.094;5.232;2023-02-14T01:02:35;33.3;;;27.9;;
63953;SDS011;50128;52.094;5.232;2023-02-14T01:04:11;31.5;;;26.2;;
63953;SDS011;50128;52.094;5.232;2023-02-14T01:07:24;32.5;;;28.5;;
63953;SDS011;50128;52.094;5.232;2023-02-14T01:09:01;34.5;;;29.6;;
63953;SDS011;50128;52.094;5.232;2023-02-14T01:10:38;34.0;;;28.1;;
63953;SDS011;50128;52.094;5.232;2023-02-14T01:13:53;35.71;;;29.5;;
63953;SDS011;50128;52.094;5.232;2023-02-14T01:15:31;34.0;;;28.0;;
63953;SDS011;50128;52.094;5.232;2023-02-14T01:17:12;33.0;;;27.1;;
63953;SDS011;50128;52.094;5.232;2023-02-14T01:18:49;31.9;;;27.7;;
63953;SDS011;50128;52.094;5.232;2023-02-14T01:22:02;33.1;;;28.5;;
63953;SDS011;50128;52.094;5.232;2023-02-14T01:23:38;33.21;;;27.5;;
63953;SDS011;50128;52.094;5.232;2023-02-14T01:25:15;34.71;;;28.4;;
63953;SDS011;50128;52.094;5.232;2023-02-14T01:30:05;32.0;;;26.8;;
63953;SDS011;50128;52.094;5.232;2023-02-14T01:31:43;32.71;;;28.8;;
63953;SDS011;50128;52.094;5.232;2023-02-14T01:33:20;33.1;;;27.5;;
63953;SDS011;50128;52.094;5.232;2023-02-14T01:36:35;33.6;;;28.3;;
63953;SDS011;50128;52.094;5.232;2023-02-14T01:38:13;31.2;;;26.7;;
63953;SDS011;50128;52.094;5.232;2023-02-14T01:39:49;31.5;;;26.0;;
63953;SDS011;50128;52.094;5.232;2023-02-14T01:43:07;32.0;;;27.2;;
63953;SDS011;50128;52.094;5.232;2023-02-14T01:44:56;30.8;;;26.7;;
63953;SDS011;50128;52.094;5.232;2023-02-14T01:46:39;32.8;;;28.1;;
63953;SDS011;50128;52.094;5.232;2023-02-14T01:48:17;32.6;;;27.9;;
63953;SDS011;50128;52.094;5.232;2023-02-14T01:51:41;32.1;;;27.4;;
63953;SDS011;50128;52.094;5.232;2023-02-14T01:53:23;30.9;;;25.8;;
63953;SDS011;50128;52.094;5.232;2023-02-14T01:55:04;30.1;;;26.3;;
63953;SDS011;50128;52.094;5.232;2023-02-14T01:56:44;33.4;;;28.1;;
63953;SDS011;50128;52.094;5.232;2023-02-14T01:58:26;34.6;;;28.8;;
63953;SDS011;50128;52.094;5.232;2023-02-14T02:02:48;35.71;;;28.9;;
63953;SDS011;50128;52.094;5.232;2023-02-14T02:06:09;30.5;;;25.7;;
63953;SDS011;50128;52.094;5.232;2023-02-14T02:07:50;35.21;;;28.9;;
63953;SDS011;50128;52.094;5.232;2023-02-14T02:09:31;34.1;;;28.3;;
63953;SDS011;50128;52.094;5.232;2023-02-14T02:11:10;35.0;;;28.3;;
63953;SDS011;50128;52.094;5.232;2023-02-14T02:14:25;33.21;;;26.8;;
63953;SDS011;50128;52.094;5.232;2023-02-14T02:16:08;33.3;;;27.6;;
63953;SDS011;50128;52.094;5.232;2023-02-14T02:17:59;32.0;;;26.9;;
63953;SDS011;50128;52.094;5.232;2023-02-14T02:19:53;32.21;;;27.4;;
63953;SDS011;50128;52.094;5.232;2023-02-14T02:23:56;34.71;;;29.6;;
63953;SDS011;50128;52.094;5.232;2023-02-14T02:26:58;32.0;;;26.4;;
63953;SDS011;50128;52.094;5.232;2023-02-14T02:30:24;32.4;;;26.7;;
63953;SDS011;50128;52.094;5.232;2023-02-14T02:32:40;31.2;;;26.4;;
63953;SDS011;50128;52.094;5.232;2023-02-14T02:36:19;32.4;;;27.1;;
63953;SDS011;50128;52.094;5.232;2023-02-14T02:38:23;31.8;;;27.2;;
63953;SDS011;50128;52.094;5.232;2023-02-14T02:40:18;31.4;;;26.3;;
63953;SDS011;50128;52.094;5.232;2023-02-14T02:43:58;32.6;;;28.0;;
63953;SDS011;50128;52.094;5.232;2023-02-14T02:46:48;32.4;;;27.2;;
63953;SDS011;50128;52.094;5.232;2023-02-14T02:48:38;33.9;;;27.7;;
63953;SDS011;50128;52.094;5.232;2023-02-14T02:54:32;33.5;;;28.4;;
63953;SDS011;50128;52.094;5.232;2023-02-14T02:57:17;33.6;;;29.0;;
63953;SDS011;50128;52.094;5.232;2023-02-14T02:59:02;34.5;;;29.2;;
63953;SDS011;50128;52.094;5.232;2023-02-14T03:02:24;34.6;;;28.9;;
63953;SDS011;50128;52.094;5.232;2023-02-14T03:05:09;34.9;;;28.4;;
63953;SDS011;50128;52.094;5.232;2023-02-14T03:06:45;34.31;;;29.1;;
63953;SDS011;50128;52.094;5.232;2023-02-14T03:08:22;36.4;;;29.8;;
63953;SDS011;50128;52.094;5.232;2023-02-14T03:09:59;34.1;;;28.5;;
63953;SDS011;50128;52.094;5.232;2023-02-14T03:11:37;37.0;;;30.1;;
63953;SDS011;50128;52.094;5.232;2023-02-14T03:15:37;34.1;;;28.0;;
63953;SDS011;50128;52.094;5.232;2023-02-14T03:18:15;34.1;;;28.2;;
63953;SDS011;50128;52.094;5.232;2023-02-14T03:22:24;38.1;;;31.5;;
63953;SDS011;50128;52.094;5.232;2023-02-14T03:24:18;35.21;;;29.3;;
63953;SDS011;50128;52.094;5.232;2023-02-14T03:27:52;35.4;;;28.9;;
63953;SDS011;50128;52.094;5.232;2023-02-14T03:29:36;35.21;;;29.0;;
63953;SDS011;50128;52.094;5.232;2023-02-14T03:31:26;35.71;;;29.8;;
63953;SDS011;50128;52.094;5.232;2023-02-14T03:33:11;38.31;;;30.1;;
63953;SDS011;50128;52.094;5.232;2023-02-14T03:34:56;37.6;;;30.3;;
63953;SDS011;50128;52.094;5.232;2023-02-14T03:36:41;38.1;;;31.3;;
63953;SDS011;50128;52.094;5.232;2023-02-14T03:40:09;38.71;;;31.2;;
63953;SDS011;50128;52.094;5.232;2023-02-14T03:41:52;38.6;;;31.5;;
63953;SDS011;50128;52.094;5.232;2023-02-14T03:43:36;38.0;;;30.9;;
63953;SDS011;50128;52.094;5.232;2023-02-14T03:45:21;36.5;;;30.7;;
63953;SDS011;50128;52.094;5.232;2023-02-14T03:48:44;37.71;;;31.0;;
63953;SDS011;50128;52.094;5.232;2023-02-14T03:50:25;35.6;;;29.9;;
63953;SDS011;50128;52.094;5.232;2023-02-14T03:52:06;38.9;;;31.3;;
63953;SDS011;50128;52.094;5.232;2023-02-14T03:53:46;34.71;;;29.4;;
63953;SDS011;50128;52.094;5.232;2023-02-14T03:55:31;36.31;;;29.5;;
63953;SDS011;50128;52.094;5.232;2023-02-14T03:58:59;34.1;;;29.5;;
63953;SDS011;50128;52.094;5.232;2023-02-14T04:00:41;35.9;;;29.5;;
63953;SDS011;50128;52.094;5.232;2023-02-14T04:02:23;36.81;;;30.9;;
63953;SDS011;50128;52.094;5.232;2023-02-14T04:04:04;36.4;;;29.9;;
63953;SDS011;50128;52.094;5.232;2023-02-14T04:07:22;34.1;;;28.7;;
63953;SDS011;50128;52.094;5.232;2023-02-14T04:08:59;36.4;;;29.8;;
63953;SDS011;50128;52.094;5.232;2023-02-14T04:10:35;38.9;;;30.7;;
63953;SDS011;50128;52.094;5.232;2023-02-14T04:13:53;38.6;;;31.3;;
63953;SDS011;50128;52.094;5.232;2023-02-14T04:15:29;36.81;;;30.0;;
63953;SDS011;50128;52.094;5.232;2023-02-14T04:19:26;34.0;;;29.2;;
63953;SDS011;50128;52.094;5.232;2023-02-14T04:21:03;34.81;;;30.2;;
63953;SDS011;50128;52.094;5.232;2023-02-14T04:22:40;32.3;;;27.6;;
63953;SDS011;50128;52.094;5.232;2023-02-14T04:25:53;35.0;;;28.5;;
63953;SDS011;50128;52.094;5.232;2023-02-14T04:27:30;36.31;;;29.0;;
63953;SDS011;50128;52.094;5.232;2023-02-14T04:29:06;34.5;;;28.3;;
63953;SDS011;50128;52.094;5.232;2023-02-14T04:32:19;35.71;;;29.5;;
63953;SDS011;50128;52.094;5.232;2023-02-14T04:33:57;34.1;;;28.5;;
63953;SDS011;50128;52.094;5.232;2023-02-14T04:35:33;33.5;;;27.8;;
63953;SDS011;50128;52.094;5.232;2023-02-14T04:38:47;37.5;;;29.5;;
63953;SDS011;50128;52.094;5.232;2023-02-14T04:41:59;33.0;;;28.1;;
63953;SDS011;50128;52.094;5.232;2023-02-14T04:43:35;33.9;;;28.4;;
63953;SDS011;50128;52.094;5.232;2023-02-14T04:46:49;31.1;;;26.4;;
63953;SDS011;50128;52.094;5.232;2023-02-14T04:48:25;32.6;;;26.7;;
63953;SDS011;50128;52.094;5.232;2023-02-14T04:50:01;31.8;;;26.7;;
63953;SDS011;50128;52.094;5.232;2023-02-14T04:53:14;32.1;;;27.1;;
63953;SDS011;50128;52.094;5.232;2023-02-14T04:54:50;33.21;;;28.6;;
63953;SDS011;50128;52.094;5.232;2023-02-14T04:56:27;34.5;;;28.6;;
63953;SDS011;50128;52.094;5.232;2023-02-14T04:59:40;33.0;;;28.0;;
63953;SDS011;50128;52.094;5.232;2023-02-14T05:01:16;31.1;;;26.2;;
63953;SDS011;50128;52.094;5.232;2023-02-14T05:02:52;33.8;;;28.8;;
63953;SDS011;50128;52.094;5.232;2023-02-14T05:06:05;33.8;;;28.8;;
63953;SDS011;50128;52.094;5.232;2023-02-14T05:07:41;31.8;;;27.4;;
63953;SDS011;50128;52.094;5.232;2023-02-14T05:09:18;32.9;;;26.9;;
63953;SDS011;50128;52.094;5.232;2023-02-14T05:10:54;32.4;;;26.7;;
63953;SDS011;50128;52.094;5.232;2023-02-14T05:14:06;30.6;;;26.3;;
63953;SDS011;50128;52.094;5.232;2023-02-14T05:15:43;31.6;;;26.6;;
63953;SDS011;50128;52.094;5.232;2023-02-14T05:17:20;29.3;;;25.9;;
63953;SDS011;50128;52.094;5.232;2023-02-14T05:20:32;32.9;;;27.7;;
63953;SDS011;50128;52.094;5.232;2023-02-14T05:22:08;33.71;;;27.0;;
63953;SDS011;50128;52.094;5.232;2023-02-14T05:23:44;33.0;;;27.3;;
63953;SDS011;50128;52.094;5.232;2023-02-14T05:26:57;30.5;;;25.8;;
63953;SDS011;50128;52.094;5.232;2023-02-14T05:28:33;30.8;;;26.2;;
63953;SDS011;50128;52.094;5.232;2023-02-14T05:30:11;30.1;;;25.7;;
63953;SDS011;50128;52.094;5.232;2023-02-14T05:31:48;29.8;;;25.5;;
63953;SDS011;50128;52.094;5.232;2023-02-14T05:35:02;29.3;;;24.8;;
63953;SDS011;50128;52.094;5.232;2023-02-14T05:36:39;29.0;;;24.3;;
63953;SDS011;50128;52.094;5.232;2023-02-14T05:38:15;29.8;;;25.1;;
63953;SDS011;50128;52.094;5.232;2023-02-14T05:41:28;30.6;;;25.6;;
63953;SDS011;50128;52.094;5.232;2023-02-14T05:43:04;29.8;;;25.5;;
63953;SDS011;50128;52.094;5.232;2023-02-14T05:44:42;30.0;;;24.8;;
63953;SDS011;50128;52.094;5.232;2023-02-14T05:47:54;27.9;;;24.6;;
63953;SDS011;50128;52.094;5.232;2023-02-14T05:49:30;28.2;;;25.0;;
63953;SDS011;50128;52.094;5.232;2023-02-14T05:51:07;31.2;;;26.4;;
63953;SDS011;50128;52.094;5.232;2023-02-14T05:52:44;29.4;;;24.1;;
63953;SDS011;50128;52.094;5.232;2023-02-14T05:55:57;29.2;;;24.2;;
63953;SDS011;50128;52.094;5.232;2023-02-14T05:57:33;29.2;;;24.1;;
63953;SDS011;50128;52.094;5.232;2023-02-14T05:59:10;28.3;;;24.7;;
63953;SDS011;50128;52.094;5.232;2023-02-14T06:02:22;28.6;;;24.4;;
63953;SDS011;50128;52.094;5.232;2023-02-14T06:03:58;29.3;;;25.1;;
63953;SDS011;50128;52.094;5.232;2023-02-14T06:05:35;27.6;;;24.2;;
63953;SDS011;50128;52.094;5.232;2023-02-14T06:08:47;30.6;;;25.3;;
63953;SDS011;50128;52.094;5.232;2023-02-14T06:10:23;26.4;;;23.5;;
63953;SDS011;50128;52.094;5.232;2023-02-14T06:12:00;27.0;;;23.2;;
63953;SDS011;50128;52.094;5.232;2023-02-14T06:13:36;27.2;;;22.8;;
63953;SDS011;50128;52.094;5.232;2023-02-14T06:16:50;26.5;;;23.2;;
63953;SDS011;50128;52.094;5.232;2023-02-14T06:18:28;30.4;;;25.0;;
63953;SDS011;50128;52.094;5.232;2023-02-14T06:20:05;26.8;;;23.2;;
63953;SDS011;50128;52.094;5.232;2023-02-14T06:23:18;27.3;;;23.5;;
63953;SDS011;50128;52.094;5.232;2023-02-14T06:24:54;31.3;;;24.5;;
63953;SDS011;50128;52.094;5.232;2023-02-14T06:26:31;27.6;;;23.5;;
63953;SDS011;50128;52.094;5.232;2023-02-14T06:29:44;27.9;;;22.2;;
63953;SDS011;50128;52.094;5.232;2023-02-14T06:31:20;29.8;;;25.2;;
63953;SDS011;50128;52.094;5.232;2023-02-14T06:32:57;28.3;;;24.3;;
63953;SDS011;50128;52.094;5.232;2023-02-14T06:34:38;27.7;;;22.4;;
63953;SDS011;50128;52.094;5.232;2023-02-14T06:37:52;26.7;;;23.8;;
63953;SDS011;50128;52.094;5.232;2023-02-14T06:39:28;28.4;;;24.8;;
63953;SDS011;50128;52.094;5.232;2023-02-14T06:41:05;29.5;;;24.6;;
63953;SDS011;50128;52.094;5.232;2023-02-14T06:44:19;30.6;;;25.0;;
63953;SDS011;50128;52.094;5.232;2023-02-14T06:45:55;29.0;;;24.4;;
63953;SDS011;50128;52.094;5.232;2023-02-14T06:47:31;27.8;;;23.0;;
63953;SDS011;50128;52.094;5.232;2023-02-14T06:49:08;30.1;;;23.9;;
63953;SDS011;50128;52.094;5.232;2023-02-14T06:52:22;27.8;;;23.8;;
63953;SDS011;50128;52.094;5.232;2023-02-14T06:53:58;28.5;;;23.4;;
63953;SDS011;50128;52.094;5.232;2023-02-14T06:55:34;29.6;;;23.4;;
63953;SDS011;50128;52.094;5.232;2023-02-14T06:58:47;26.0;;;22.9;;
63953;SDS011;50128;52.094;5.232;2023-02-14T07:00:23;26.9;;;21.5;;
63953;SDS011;50128;52.094;5.232;2023-02-14T07:01:59;29.1;;;24.3;;
63953;SDS011;50128;52.094;5.232;2023-02-14T07:05:11;29.7;;;24.5;;
63953;SDS011;50128;52.094;5.232;2023-02-14T07:06:47;28.4;;;23.8;;
63953;SDS011;50128;52.094;5.232;2023-02-14T07:08:25;27.4;;;22.7;;
63953;SDS011;50128;52.094;5.232;2023-02-14T07:11:38;27.5;;;23.5;;
63953;SDS011;50128;52.094;5.232;2023-02-14T07:13:14;28.9;;;22.6;;
63953;SDS011;50128;52.094;5.232;2023-02-14T07:14:50;27.2;;;23.2;;
63953;SDS011;50128;52.094;5.232;2023-02-14T07:16:26;25.7;;;21.1;;
63953;SDS011;50128;52.094;5.232;2023-02-14T07:19:40;25.7;;;22.0;;
63953;SDS011;50128;52.094;5.232;2023-02-14T07:21:16;26.4;;;22.8;;
63953;SDS011;50128;52.094;5.232;2023-02-14T07:22:54;27.5;;;22.6;;
63953;SDS011;50128;52.094;5.232;2023-02-14T07:26:07;27.4;;;23.7;;
63953;SDS011;50128;52.094;5.232;2023-02-14T07:27:43;28.9;;;23.2;;
63953;SDS011;50128;52.094;5.232;2023-02-14T07:29:19;28.8;;;24.3;;
63953;SDS011;50128;52.094;5.232;2023-02-14T07:32:35;28.2;;;23.9;;
63953;SDS011;50128;52.094;5.232;2023-02-14T07:34:12;30.3;;;25.6;;
63953;SDS011;50128;52.094;5.232;2023-02-14T07:35:49;28.0;;;22.9;;
63953;SDS011;50128;52.094;5.232;2023-02-14T07:37:26;28.4;;;23.5;;
63953;SDS011;50128;52.094;5.232;2023-02-14T07:40:38;31.8;;;26.5;;
63953;SDS011;50128;52.094;5.232;2023-02-14T07:42:14;29.5;;;24.3;;
63953;SDS011;50128;52.094;5.232;2023-02-14T07:43:51;29.9;;;25.3;;
63953;SDS011;50128;52.094;5.232;2023-02-14T07:47:04;29.2;;;24.8;;
63953;SDS011;50128;52.094;5.232;2023-02-14T07:48:41;30.5;;;26.3;;
63953;SDS011;50128;52.094;5.232;2023-02-14T07:50:17;30.5;;;26.3;;
63953;SDS011;50128;52.094;5.232;2023-02-14T07:51:54;28.9;;;24.9;;
63953;SDS011;50128;52.094;5.232;2023-02-14T07:55:06;28.9;;;25.0;;
63953;SDS011;50128;52.094;5.232;2023-02-14T07:56:43;31.2;;;27.0;;
63953;SDS011;50128;52.094;5.232;2023-02-14T07:58:19;28.4;;;25.3;;
63953;SDS011;50128;52.094;5.232;2023-02-14T08:01:32;28.8;;;25.6;;
63953;SDS011;50128;52.094;5.232;2023-02-14T08:03:08;26.0;;;23.2;;
63953;SDS011;50128;52.094;5.232;2023-02-14T08:04:44;29.2;;;24.7;;
63953;SDS011;50128;52.094;5.232;2023-02-14T08:09:33;32.0;;;27.2;;
63953;SDS011;50128;52.094;5.232;2023-02-14T08:11:09;30.6;;;26.4;;
63953;SDS011;50128;52.094;5.232;2023-02-14T08:14:37;31.5;;;27.7;;
63953;SDS011;50128;52.094;5.232;2023-02-14T08:16:14;33.3;;;27.7;;
63953;SDS011;50128;52.094;5.232;2023-02-14T08:17:50;32.0;;;27.5;;
63953;SDS011;50128;52.094;5.232;2023-02-14T08:19:26;31.8;;;28.0;;
63953;SDS011;50128;52.094;5.232;2023-02-14T08:22:42;32.1;;;28.6;;
63953;SDS011;50128;52.094;5.232;2023-02-14T08:24:18;32.4;;;27.7;;
63953;SDS011;50128;52.094;5.232;2023-02-14T08:25:54;32.5;;;28.0;;
63953;SDS011;50128;52.094;5.232;2023-02-14T08:27:31;34.4;;;29.8;;
63953;SDS011;50128;52.094;5.232;2023-02-14T08:30:44;34.21;;;29.7;;
63953;SDS011;50128;52.094;5.232;2023-02-14T08:32:21;34.21;;;29.7;;
63953;SDS011;50128;52.094;5.232;2023-02-14T08:33:57;36.81;;;29.2;;
63953;SDS011;50128;52.094;5.232;2023-02-14T08:37:10;36.4;;;31.4;;
63953;SDS011;50128;52.094;5.232;2023-02-14T08:38:47;35.9;;;32.0;;
63953;SDS011;50128;52.094;5.232;2023-02-14T08:40:23;36.81;;;31.1;;
63953;SDS011;50128;52.094;5.232;2023-02-14T08:43:36;37.4;;;33.3;;
63953;SDS011;50128;52.094;5.232;2023-02-14T08:45:12;36.9;;;32.1;;
63953;SDS011;50128;52.094;5.232;2023-02-14T08:46:48;40.4;;;33.1;;
63953;SDS011;50128;52.094;5.232;2023-02-14T08:48:25;38.31;;;33.5;;
63953;SDS011;50128;52.094;5.232;2023-02-14T08:51:40;37.81;;;33.1;;
63953;SDS011;50128;52.094;5.232;2023-02-14T08:53:16;35.31;;;31.4;;
63953;SDS011;50128;52.094;5.232;2023-02-14T08:54:52;35.81;;;31.7;;
63953;SDS011;50128;52.094;5.232;2023-02-14T08:58:04;35.5;;;31.2;;
63953;SDS011;50128;52.094;5.232;2023-02-14T08:59:43;38.4;;;33.71;;
63953;SDS011;50128;52.094;5.232;2023-02-14T09:01:20;39.9;;;35.21;;
63953;SDS011;50128;52.094;5.232;2023-02-14T09:04:33;41.5;;;35.1;;
63953;SDS011;50128;52.094;5.232;2023-02-14T09:06:11;39.6;;;32.8;;
63953;SDS011;50128;52.094;5.232;2023-02-14T09:07:49;37.9;;;32.71;;
63953;SDS011;50128;52.094;5.232;2023-02-14T09:09:26;38.71;;;33.3;;
63953;SDS011;50128;52.094;5.232;2023-02-14T09:12:42;39.21;;;33.6;;
63953;SDS011;50128;52.094;5.232;2023-02-14T09:14:19;37.21;;;32.4;;
63953;SDS011;50128;52.094;5.232;2023-02-14T09:15:56;43.2;;;36.1;;
63953;SDS011;50128;52.094;5.232;2023-02-14T09:19:09;39.0;;;33.5;;
63953;SDS011;50128;52.094;5.232;2023-02-14T09:20:45;38.71;;;33.5;;
63953;SDS011;50128;52.094;5.232;2023-02-14T09:22:21;37.5;;;32.71;;
63953;SDS011;50128;52.094;5.232;2023-02-14T09:23:58;38.9;;;33.5;;
63953;SDS011;50128;52.094;5.232;2023-02-14T09:27:10;38.9;;;34.4;;
63953;SDS011;50128;52.094;5.232;2023-02-14T09:28:46;40.6;;;35.0;;
63953;SDS011;50128;52.094;5.232;2023-02-14T09:30:23;41.4;;;35.5;;
63953;SDS011;50128;52.094;5.232;2023-02-14T09:33:37;35.21;;;31.4;;
63953;SDS011;50128;52.094;5.232;2023-02-14T09:38:19;37.4;;;33.3;;
63953;SDS011;50128;52.094;5.232;2023-02-14T09:39:55;36.31;;;32.0;;
63953;SDS011;50128;52.094;5.232;2023-02-14T09:41:37;35.1;;;31.3;;
63953;SDS011;50128;52.094;5.232;2023-02-14T09:43:45;36.4;;;32.4;;
63953;SDS011;50128;52.094;5.232;2023-02-14T09:45:29;37.71;;;33.8;;
63953;SDS011;50128;52.094;5.232;2023-02-14T09:47:10;36.6;;;32.3;;
63953;SDS011;50128;52.094;5.232;2023-02-14T09:50:35;34.81;;;31.1;;
63953;SDS011;50128;52.094;5.232;2023-02-14T09:52:17;35.1;;;31.2;;
63953;SDS011;50128;52.094;5.232;2023-02-14T09:53:59;31.9;;;28.4;;
63953;SDS011;50128;52.094;5.232;2023-02-14T09:55:41;32.71;;;29.3;;
63953;SDS011;50128;52.094;5.232;2023-02-14T09:57:28;33.71;;;30.1;;
63953;SDS011;50128;52.094;5.232;2023-02-14T10:01:00;32.8;;;29.1;;
63953;SDS011;50128;52.094;5.232;2023-02-14T10:02:48;31.7;;;28.3;;
63953;SDS011;50128;52.094;5.232;2023-02-14T10:04:32;32.3;;;28.8;;
63953;SDS011;50128;52.094;5.232;2023-02-14T10:06:21;31.3;;;27.9;;
63953;SDS011;50128;52.094;5.232;2023-02-14T10:10:18;33.1;;;29.2;;
63953;SDS011;50128;52.094;5.232;2023-02-14T10:13:39;33.0;;;29.4;;
63953;SDS011;50128;52.094;5.232;2023-02-14T10:15:22;31.2;;;27.9;;
63953;SDS011;50128;52.094;5.232;2023-02-14T10:17:04;30.2;;;27.1;;
63953;SDS011;50128;52.094;5.232;2023-02-14T10:18:45;30.3;;;27.0;;
63953;SDS011;50128;52.094;5.232;2023-02-14T10:20:27;32.8;;;29.2;;
63953;SDS011;50128;52.094;5.232;2023-02-14T10:23:52;31.6;;;28.1;;
63953;SDS011;50128;52.094;5.232;2023-02-14T10:25:38;31.3;;;28.0;;
63953;SDS011;50128;52.094;5.232;2023-02-14T10:27:24;34.1;;;28.2;;
63953;SDS011;50128;52.094;5.232;2023-02-14T10:29:07;32.1;;;27.1;;
63953;SDS011;50128;52.094;5.232;2023-02-14T10:32:46;31.8;;;26.9;;
63953;SDS011;50128;52.094;5.232;2023-02-14T10:34:32;31.9;;;28.2;;
63953;SDS011;50128;52.094;5.232;2023-02-14T10:36:18;30.4;;;26.4;;
63953;SDS011;50128;52.094;5.232;2023-02-14T10:38:08;29.9;;;26.3;;
63953;SDS011;50128;52.094;5.232;2023-02-14T10:39:59;29.4;;;26.3;;
63953;SDS011;50128;52.094;5.232;2023-02-14T10:41:56;29.2;;;26.1;;
63953;SDS011;50128;52.094;5.232;2023-02-14T10:43:42;29.7;;;26.6;;
63953;SDS011;50128;52.094;5.232;2023-02-14T10:47:18;28.6;;;25.5;;
63953;SDS011;50128;52.094;5.232;2023-02-14T10:49:09;30.8;;;27.6;;
63953;SDS011;50128;52.094;5.232;2023-02-14T10:51:02;31.5;;;27.0;;
63953;SDS011;50128;52.094;5.232;2023-02-14T10:52:50;30.2;;;27.0;;
63953;SDS011;50128;52.094;5.232;2023-02-14T10:54:38;30.4;;;27.1;;
63953;SDS011;50128;52.094;5.232;2023-02-14T10:56:19;30.6;;;27.4;;
63953;SDS011;50128;52.094;5.232;2023-02-14T10:59:47;30.6;;;27.4;;
63953;SDS011;50128;52.094;5.232;2023-02-14T11:01:28;29.5;;;26.2;;
63953;SDS011;50128;52.094;5.232;2023-02-14T11:03:06;31.0;;;27.8;;
63953;SDS011;50128;52.094;5.232;2023-02-14T11:04:45;29.3;;;26.2;;
63953;SDS011;50128;52.094;5.232;2023-02-14T11:07:59;30.0;;;26.9;;
63953;SDS011;50128;52.094;5.232;2023-02-14T11:09:36;32.4;;;28.2;;
63953;SDS011;50128;52.094;5.232;2023-02-14T11:11:13;30.2;;;27.0;;
63953;SDS011;50128;52.094;5.232;2023-02-14T11:12:55;30.4;;;27.2;;
63953;SDS011;50128;52.094;5.232;2023-02-14T11:16:12;30.1;;;26.9;;
63953;SDS011;50128;52.094;5.232;2023-02-14T11:18:07;32.71;;;28.0;;
63953;SDS011;50128;52.094;5.232;2023-02-14T11:19:56;31.9;;;28.4;;
63953;SDS011;50128;52.094;5.232;2023-02-14T11:21:35;30.4;;;27.2;;
63953;SDS011;50128;52.094;5.232;2023-02-14T11:23:17;30.5;;;27.3;;
63953;SDS011;50128;52.094;5.232;2023-02-14T11:26:39;32.21;;;28.7;;
63953;SDS011;50128;52.094;5.232;2023-02-14T11:28:21;30.8;;;27.6;;
63953;SDS011;50128;52.094;5.232;2023-02-14T11:29:58;30.3;;;26.7;;
63953;SDS011;50128;52.094;5.232;2023-02-14T11:31:35;32.0;;;28.5;;
63953;SDS011;50128;52.094;5.232;2023-02-14T11:35:15;30.5;;;27.3;;
63953;SDS011;50128;52.094;5.232;2023-02-14T11:36:55;29.2;;;26.1;;
63953;SDS011;50128;52.094;5.232;2023-02-14T11:38:34;30.1;;;25.5;;
63953;SDS011;50128;52.094;5.232;2023-02-14T11:40:23;29.1;;;25.8;;
63953;SDS011;50128;52.094;5.232;2023-02-14T11:42:03;30.8;;;26.8;;
63953;SDS011;50128;52.094;5.232;2023-02-14T11:45:35;30.0;;;26.8;;
63953;SDS011;50128;52.094;5.232;2023-02-14T11:47:15;30.7;;;27.4;;
63953;SDS011;50128;52.094;5.232;2023-02-14T11:49:01;30.5;;;27.2;;
63953;SDS011;50128;52.094;5.232;2023-02-14T11:50:38;28.9;;;25.7;;
63953;SDS011;50128;52.094;5.232;2023-02-14T11:53:55;31.1;;;27.7;;
63953;SDS011;50128;52.094;5.232;2023-02-14T11:55:33;30.0;;;26.8;;
63953;SDS011;50128;52.094;5.232;2023-02-14T11:57:11;31.6;;;28.2;;
63953;SDS011;50128;52.094;5.232;2023-02-14T11:58:58;29.6;;;26.2;;
63953;SDS011;50128;52.094;5.232;2023-02-14T12:02:21;29.4;;;25.6;;
63953;SDS011;50128;52.094;5.232;2023-02-14T12:04:14;29.3;;;25.9;;
63953;SDS011;50128;52.094;5.232;2023-02-14T12:05:59;31.7;;;27.0;;
63953;SDS011;50128;52.094;5.232;2023-02-14T12:07:37;29.4;;;25.8;;
63953;SDS011;50128;52.094;5.232;2023-02-14T12:09:23;30.8;;;27.0;;
63953;SDS011;50128;52.094;5.232;2023-02-14T12:12:54;29.6;;;25.9;;
63953;SDS011;50128;52.094;5.232;2023-02-14T12:14:35;30.9;;;27.6;;
63953;SDS011;50128;52.094;5.232;2023-02-14T12:16:13;29.3;;;26.1;;
63953;SDS011;50128;52.094;5.232;2023-02-14T12:17:59;30.4;;;25.7;;
63953;SDS011;50128;52.094;5.232;2023-02-14T12:19:54;28.5;;;25.3;;
63953;SDS011;50128;52.094;5.232;2023-02-14T12:23:23;29.1;;;24.8;;
63953;SDS011;50128;52.094;5.232;2023-02-14T12:25:09;28.9;;;25.7;;
63953;SDS011;50128;52.094;5.232;2023-02-14T12:26:52;28.2;;;25.2;;
63953;SDS011;50128;52.094;5.232;2023-02-14T12:28:38;29.7;;;24.9;;
63953;SDS011;50128;52.094;5.232;2023-02-14T12:30:23;28.4;;;24.1;;
63953;SDS011;50128;52.094;5.232;2023-02-14T12:33:51;28.4;;;24.4;;
63953;SDS011;50128;52.094;5.232;2023-02-14T12:35:34;27.8;;;23.5;;
63953;SDS011;50128;52.094;5.232;2023-02-14T12:37:25;27.1;;;23.6;;
63953;SDS011;50128;52.094;5.232;2023-02-14T12:39:16;29.5;;;24.9;;
63953;SDS011;50128;52.094;5.232;2023-02-14T12:41:06;27.2;;;23.7;;
63953;SDS011;50128;52.094;5.232;2023-02-14T12:43:08;26.7;;;23.6;;
63953;SDS011;50128;52.094;5.232;2023-02-14T12:44:57;30.3;;;24.3;;
63953;SDS011;50128;52.094;5.232;2023-02-14T12:48:51;29.3;;;24.5;;
63953;SDS011;50128;52.094;5.232;2023-02-14T12:50:48;27.3;;;23.5;;
63953;SDS011;50128;52.094;5.232;2023-02-14T12:52:42;29.0;;;25.3;;
63953;SDS011;50128;52.094;5.232;2023-02-14T12:54:35;28.7;;;24.5;;
63953;SDS011;50128;52.094;5.232;2023-02-14T12:56:27;27.9;;;24.0;;
63953;SDS011;50128;52.094;5.232;2023-02-14T12:58:20;28.7;;;23.9;;
63953;SDS011;50128;52.094;5.232;2023-02-14T13:00:14;31.3;;;25.4;;
63953;SDS011;50128;52.094;5.232;2023-02-14T13:02:10;28.9;;;23.6;;
63953;SDS011;50128;52.094;5.232;2023-02-14T13:04:37;28.9;;;24.1;;